sensor_id;sensor_type;location;lat;lon;timestamp;pressure;altitude;pressure_sealevel;temperature;humidity
5053;BME280;2545;50.892;5.740;2023-05-02T00:00:14;56116.00;;;-142.21;100.00
5053;BME280;2545;50.892;5.740;2023-05-02T00:02:40;56153.28;;;-142.21;100.00
5053;BME280;2545;50.892;5.740;2023-05-02T00:05:06;56147.38;;;-142.21;100.00
5053;BME280;2545;50.892;5.740;2023-05-02T00:07:32;56163.06;;;-142.21;100.00
5053;BME280;2545;50.892;5.740;2023-05-02T00:09:57;56143.47;;;-142.21;100.00
5053;BME280;2545;50.892;5.740;2023-05-02T00:12:23;56153.28;;;-142.21;100.00
5053;BME280;2545;50.892;5.740;2023-05-02T00:14:48;56145.44;;;-142.21;100.00
5053;BME280;2545;50.892;5.740;2023-05-02T00:17:17;56188.56;;;-142.21;100.00
5053;BME280;2545;50.892;5.740;2023-05-02T00:19:43;56184.66;;;-142.21;100.00
5053;BME280;2545;50.892;5.740;2023-05-02T00:22:09;56178.75;;;-142.21;100.00
5053;BME280;2545;50.892;5.740;2023-05-02T00:24:34;56182.69;;;-142.21;100.00
5053;BME280;2545;50.892;5.740;2023-05-02T00:26:59;56161.13;;;-142.21;100.00
5053;BME280;2545;50.892;5.740;2023-05-02T00:29:25;56153.28;;;-142.21;100.00
5053;BME280;2545;50.892;5.740;2023-05-02T00:31:50;56155.22;;;-142.21;100.00
5053;BME280;2545;50.892;5.740;2023-05-02T00:34:15;56178.75;;;-142.21;100.00
5053;BME280;2545;50.892;5.740;2023-05-02T00:36:41;56155.22;;;-142.21;100.00
5053;BME280;2545;50.892;5.740;2023-05-02T00:39:06;56196.41;;;-142.21;100.00
5053;BME280;2545;50.892;5.740;2023-05-02T00:41:31;56155.22;;;-142.21;100.00
5053;BME280;2545;50.892;5.740;2023-05-02T00:43:57;56161.13;;;-142.21;100.00
5053;BME280;2545;50.892;5.740;2023-05-02T00:46:23;56153.28;;;-142.21;100.00
5053;BME280;2545;50.892;5.740;2023-05-02T00:48:48;56163.06;;;-142.21;100.00
5053;BME280;2545;50.892;5.740;2023-05-02T00:51:14;56163.06;;;-142.21;100.00
5053;BME280;2545;50.892;5.740;2023-05-02T00:53:39;56155.22;;;-142.21;100.00
5053;BME280;2545;50.892;5.740;2023-05-02T00:56:06;56131.69;;;-142.21;100.00
5053;BME280;2545;50.892;5.740;2023-05-02T00:58:31;56161.13;;;-142.21;100.00
5053;BME280;2545;50.892;5.740;2023-05-02T01:01:25;56151.31;;;-142.21;100.00
5053;BME280;2545;50.892;5.740;2023-05-02T01:12:34;56172.88;;;-142.21;100.00
5053;BME280;2545;50.892;5.740;2023-05-02T01:14:58;56157.19;;;-142.21;100.00
5053;BME280;2545;50.892;5.740;2023-05-02T01:17:29;56139.53;;;-142.21;100.00
5053;BME280;2545;50.892;5.740;2023-05-02T01:19:59;56159.16;;;-142.21;100.00
5053;BME280;2545;50.892;5.740;2023-05-02T01:22:28;56168.97;;;-142.21;100.00
5053;BME280;2545;50.892;5.740;2023-05-02T01:30:24;56137.59;;;-142.21;100.00
5053;BME280;2545;50.892;5.740;2023-05-02T01:32:52;56161.13;;;-142.21;100.00
5053;BME280;2545;50.892;5.740;2023-05-02T01:35:20;56155.22;;;-142.21;100.00
5053;BME280;2545;50.892;5.740;2023-05-02T01:37:47;56174.84;;;-142.21;100.00
5053;BME280;2545;50.892;5.740;2023-05-02T01:40:16;56180.72;;;-142.21;100.00
5053;BME280;2545;50.892;5.740;2023-05-02T01:42:42;56139.53;;;-142.21;100.00
5053;BME280;2545;50.892;5.740;2023-05-02T01:45:10;56186.59;;;-142.21;100.00
5053;BME280;2545;50.892;5.740;2023-05-02T01:47:36;56216.00;;;-142.21;100.00
5053;BME280;2545;50.892;5.740;2023-05-02T01:50:04;56167.00;;;-142.21;100.00
5053;BME280;2545;50.892;5.740;2023-05-02T01:52:32;56127.78;;;-142.21;100.00
5053;BME280;2545;50.892;5.740;2023-05-02T01:54:59;56190.53;;;-142.21;100.00
5053;BME280;2545;50.892;5.740;2023-05-02T01:57:25;56208.16;;;-142.21;100.00
5053;BME280;2545;50.892;5.740;2023-05-02T01:59:52;56147.38;;;-142.21;100.00
5053;BME280;2545;50.892;5.740;2023-05-02T02:02:20;56165.03;;;-142.21;100.00
5053;BME280;2545;50.892;5.740;2023-05-02T02:04:47;56227.78;;;-142.21;100.00
5053;BME280;2545;50.892;5.740;2023-05-02T02:07:13;56172.88;;;-142.21;100.00
5053;BME280;2545;50.892;5.740;2023-05-02T02:09:39;56165.03;;;-142.21;100.00
5053;BME280;2545;50.892;5.740;2023-05-02T02:15:16;56155.22;;;-142.21;100.00
5053;BME280;2545;50.892;5.740;2023-05-02T02:17:46;56155.22;;;-142.21;100.00
5053;BME280;2545;50.892;5.740;2023-05-02T02:20:14;56167.00;;;-142.21;100.00
5053;BME280;2545;50.892;5.740;2023-05-02T02:22:41;56151.31;;;-142.21;100.00
5053;BME280;2545;50.892;5.740;2023-05-02T02:25:10;56204.25;;;-142.21;100.00
5053;BME280;2545;50.892;5.740;2023-05-02T02:27:37;56202.28;;;-142.21;100.00
5053;BME280;2545;50.892;5.740;2023-05-02T02:30:03;56116.00;;;-142.21;100.00
5053;BME280;2545;50.892;5.740;2023-05-02T02:32:29;56167.00;;;-142.21;100.00
5053;BME280;2545;50.892;5.740;2023-05-02T02:34:54;56172.88;;;-142.21;100.00
5053;BME280;2545;50.892;5.740;2023-05-02T02:37:29;56153.28;;;-142.21;100.00
5053;BME280;2545;50.892;5.740;2023-05-02T02:40:07;56151.31;;;-142.21;100.00
5053;BME280;2545;50.892;5.740;2023-05-02T02:45:33;56153.28;;;-142.21;100.00
5053;BME280;2545;50.892;5.740;2023-05-02T02:54:05;56186.59;;;-142.21;100.00
5053;BME280;2545;50.892;5.740;2023-05-02T02:56:41;56168.97;;;-142.21;100.00
5053;BME280;2545;50.892;5.740;2023-05-02T02:59:28;56139.53;;;-142.21;100.00
5053;BME280;2545;50.892;5.740;2023-05-02T03:02:07;56182.69;;;-142.21;100.00
5053;BME280;2545;50.892;5.740;2023-05-02T03:04:35;56129.75;;;-142.21;100.00
5053;BME280;2545;50.892;5.740;2023-05-02T03:07:02;56141.50;;;-142.21;100.00
5053;BME280;2545;50.892;5.740;2023-05-02T03:09:27;56176.78;;;-142.21;100.00
5053;BME280;2545;50.892;5.740;2023-05-02T03:11:57;56141.50;;;-142.21;100.00
5053;BME280;2545;50.892;5.740;2023-05-02T03:14:23;56190.53;;;-142.21;100.00
5053;BME280;2545;50.892;5.740;2023-05-02T03:16:48;56157.19;;;-142.21;100.00
5053;BME280;2545;50.892;5.740;2023-05-02T03:19:14;56137.59;;;-142.21;100.00
5053;BME280;2545;50.892;5.740;2023-05-02T03:21:39;56182.69;;;-142.21;100.00
5053;BME280;2545;50.892;5.740;2023-05-02T03:24:05;56131.69;;;-142.21;100.00
5053;BME280;2545;50.892;5.740;2023-05-02T03:26:31;56170.91;;;-142.21;100.00
5053;BME280;2545;50.892;5.740;2023-05-02T03:28:56;56178.75;;;-142.21;100.00
5053;BME280;2545;50.892;5.740;2023-05-02T03:31:21;56178.75;;;-142.21;100.00
5053;BME280;2545;50.892;5.740;2023-05-02T03:33:48;56176.78;;;-142.21;100.00
5053;BME280;2545;50.892;5.740;2023-05-02T03:36:13;56165.03;;;-142.21;100.00
5053;BME280;2545;50.892;5.740;2023-05-02T03:38:39;56186.59;;;-142.21;100.00
5053;BME280;2545;50.892;5.740;2023-05-02T03:41:04;56163.06;;;-142.21;100.00
5053;BME280;2545;50.892;5.740;2023-05-02T03:43:30;56184.66;;;-142.21;100.00
5053;BME280;2545;50.892;5.740;2023-05-02T03:45:56;56159.16;;;-142.21;100.00
5053;BME280;2545;50.892;5.740;2023-05-02T03:48:21;56161.13;;;-142.21;100.00
5053;BME280;2545;50.892;5.740;2023-05-02T03:50:47;56143.47;;;-142.21;100.00
5053;BME280;2545;50.892;5.740;2023-05-02T03:53:13;56145.44;;;-142.21;100.00
5053;BME280;2545;50.892;5.740;2023-05-02T03:55:41;56159.16;;;-142.21;100.00
5053;BME280;2545;50.892;5.740;2023-05-02T03:58:07;56125.81;;;-142.21;100.00
5053;BME280;2545;50.892;5.740;2023-05-02T04:00:32;56147.38;;;-142.21;100.00
5053;BME280;2545;50.892;5.740;2023-05-02T04:03:00;56186.59;;;-142.21;100.00
5053;BME280;2545;50.892;5.740;2023-05-02T04:05:25;56159.16;;;-142.21;100.00
5053;BME280;2545;50.892;5.740;2023-05-02T04:07:50;56141.50;;;-142.21;100.00
5053;BME280;2545;50.892;5.740;2023-05-02T04:10:16;56137.59;;;-142.21;100.00
5053;BME280;2545;50.892;5.740;2023-05-02T04:12:42;56165.03;;;-142.21;100.00
5053;BME280;2545;50.892;5.740;2023-05-02T04:15:09;56167.00;;;-142.21;100.00
5053;BME280;2545;50.892;5.740;2023-05-02T04:17:34;56184.66;;;-142.21;100.00
5053;BME280;2545;50.892;5.740;2023-05-02T04:19:59;56131.69;;;-142.21;100.00
5053;BME280;2545;50.892;5.740;2023-05-02T04:22:25;56163.06;;;-142.21;100.00
5053;BME280;2545;50.892;5.740;2023-05-02T04:24:50;56147.38;;;-142.21;100.00
5053;BME280;2545;50.892;5.740;2023-05-02T04:27:15;56167.00;;;-142.21;100.00
5053;BME280;2545;50.892;5.740;2023-05-02T04:29:41;56153.28;;;-142.21;100.00
5053;BME280;2545;50.892;5.740;2023-05-02T04:32:06;56170.91;;;-142.21;100.00
5053;BME280;2545;50.892;5.740;2023-05-02T04:34:31;56163.06;;;-142.21;100.00
5053;BME280;2545;50.892;5.740;2023-05-02T04:36:57;56163.06;;;-142.21;100.00
5053;BME280;2545;50.892;5.740;2023-05-02T04:39:22;56168.97;;;-142.21;100.00
5053;BME280;2545;50.892;5.740;2023-05-02T04:41:47;56174.84;;;-142.21;100.00
5053;BME280;2545;50.892;5.740;2023-05-02T04:44:13;56131.69;;;-142.21;100.00
5053;BME280;2545;50.892;5.740;2023-05-02T04:46:38;56137.59;;;-142.21;100.00
5053;BME280;2545;50.892;5.740;2023-05-02T04:49:03;56202.28;;;-142.21;100.00
5053;BME280;2545;50.892;5.740;2023-05-02T04:51:29;56176.78;;;-142.21;100.00
5053;BME280;2545;50.892;5.740;2023-05-02T04:53:55;56135.63;;;-142.21;100.00
5053;BME280;2545;50.892;5.740;2023-05-02T04:56:21;56194.44;;;-142.21;100.00
5053;BME280;2545;50.892;5.740;2023-05-02T04:58:46;56147.38;;;-142.21;100.00
5053;BME280;2545;50.892;5.740;2023-05-02T05:01:12;56192.50;;;-142.21;100.00
5053;BME280;2545;50.892;5.740;2023-05-02T05:03:37;56163.06;;;-142.21;100.00
5053;BME280;2545;50.892;5.740;2023-05-02T05:06:02;56147.38;;;-142.21;100.00
5053;BME280;2545;50.892;5.740;2023-05-02T05:08:28;56176.78;;;-142.21;100.00
5053;BME280;2545;50.892;5.740;2023-05-02T05:10:53;56174.84;;;-142.21;100.00
5053;BME280;2545;50.892;5.740;2023-05-02T05:13:19;56165.03;;;-142.21;100.00
5053;BME280;2545;50.892;5.740;2023-05-02T05:15:44;56147.38;;;-142.21;100.00
5053;BME280;2545;50.892;5.740;2023-05-02T05:18:09;56170.91;;;-142.21;100.00
5053;BME280;2545;50.892;5.740;2023-05-02T05:20:35;56180.72;;;-142.21;100.00
5053;BME280;2545;50.892;5.740;2023-05-02T05:23:00;56170.91;;;-142.21;100.00
5053;BME280;2545;50.892;5.740;2023-05-02T05:25:26;56155.22;;;-142.21;100.00
5053;BME280;2545;50.892;5.740;2023-05-02T05:27:54;56161.13;;;-142.21;100.00
5053;BME280;2545;50.892;5.740;2023-05-02T05:30:22;56153.28;;;-142.21;100.00
5053;BME280;2545;50.892;5.740;2023-05-02T05:32:47;56153.28;;;-142.21;100.00
5053;BME280;2545;50.892;5.740;2023-05-02T05:35:13;56151.31;;;-142.21;100.00
5053;BME280;2545;50.892;5.740;2023-05-02T05:37:38;56145.44;;;-142.21;100.00
5053;BME280;2545;50.892;5.740;2023-05-02T05:40:07;56163.06;;;-142.21;100.00
5053;BME280;2545;50.892;5.740;2023-05-02T05:42:33;56141.50;;;-142.21;100.00
5053;BME280;2545;50.892;5.740;2023-05-02T05:44:58;56186.59;;;-142.21;100.00
5053;BME280;2545;50.892;5.740;2023-05-02T05:47:24;56149.34;;;-142.21;100.00
5053;BME280;2545;50.892;5.740;2023-05-02T05:49:53;56163.06;;;-142.21;100.00
5053;BME280;2545;50.892;5.740;2023-05-02T05:52:18;56176.78;;;-142.21;100.00
5053;BME280;2545;50.892;5.740;2023-05-02T05:54:44;56172.88;;;-142.21;100.00
5053;BME280;2545;50.892;5.740;2023-05-02T05:57:09;56147.38;;;-142.21;100.00
5053;BME280;2545;50.892;5.740;2023-05-02T05:59:34;56212.09;;;-142.21;100.00
5053;BME280;2545;50.892;5.740;2023-05-02T06:02:00;56141.50;;;-142.21;100.00
5053;BME280;2545;50.892;5.740;2023-05-02T06:04:26;56157.19;;;-142.21;100.00
5053;BME280;2545;50.892;5.740;2023-05-02T06:06:51;56167.00;;;-142.21;100.00
5053;BME280;2545;50.892;5.740;2023-05-02T06:09:17;56143.47;;;-142.21;100.00
5053;BME280;2545;50.892;5.740;2023-05-02T06:11:43;56176.78;;;-142.21;100.00
5053;BME280;2545;50.892;5.740;2023-05-02T06:14:08;56180.72;;;-142.21;100.00
5053;BME280;2545;50.892;5.740;2023-05-02T06:16:34;56176.78;;;-142.21;100.00
5053;BME280;2545;50.892;5.740;2023-05-02T06:18:59;56182.69;;;-142.21;100.00
5053;BME280;2545;50.892;5.740;2023-05-02T06:21:24;56184.66;;;-142.21;100.00
5053;BME280;2545;50.892;5.740;2023-05-02T06:23:50;56176.78;;;-142.21;100.00
5053;BME280;2545;50.892;5.740;2023-05-02T06:26:16;56190.53;;;-142.21;100.00
5053;BME280;2545;50.892;5.740;2023-05-02T06:28:41;56182.69;;;-142.21;100.00
5053;BME280;2545;50.892;5.740;2023-05-02T06:31:06;56231.72;;;-142.21;100.00
5053;BME280;2545;50.892;5.740;2023-05-02T06:33:33;56147.38;;;-142.21;100.00
5053;BME280;2545;50.892;5.740;2023-05-02T06:35:58;56172.88;;;-142.21;100.00
5053;BME280;2545;50.892;5.740;2023-05-02T06:38:24;56180.72;;;-142.21;100.00
5053;BME280;2545;50.892;5.740;2023-05-02T06:40:50;56135.63;;;-142.21;100.00
5053;BME280;2545;50.892;5.740;2023-05-02T06:43:16;56167.00;;;-142.21;100.00
5053;BME280;2545;50.892;5.740;2023-05-02T06:45:42;56200.34;;;-142.21;100.00
5053;BME280;2545;50.892;5.740;2023-05-02T06:48:08;56194.44;;;-142.21;100.00
5053;BME280;2545;50.892;5.740;2023-05-02T06:50:34;56141.50;;;-142.21;98.57
5053;BME280;2545;50.892;5.740;2023-05-02T06:52:59;56174.84;;;-142.21;99.40
5053;BME280;2545;50.892;5.740;2023-05-02T06:55:25;56151.31;;;-142.21;100.00
5053;BME280;2545;50.892;5.740;2023-05-02T06:57:50;56174.84;;;-142.21;99.08
5053;BME280;2545;50.892;5.740;2023-05-02T07:00:17;56155.22;;;-142.21;96.59
5053;BME280;2545;50.892;5.740;2023-05-02T07:02:46;56143.47;;;-142.21;94.03
5053;BME280;2545;50.892;5.740;2023-05-02T07:05:12;56151.31;;;-142.21;92.47
5053;BME280;2545;50.892;5.740;2023-05-02T07:07:42;56131.69;;;-142.21;90.41
5053;BME280;2545;50.892;5.740;2023-05-02T07:10:09;56149.34;;;-142.21;89.92
5053;BME280;2545;50.892;5.740;2023-05-02T07:12:34;56153.28;;;-142.21;88.96
5053;BME280;2545;50.892;5.740;2023-05-02T07:15:00;56167.00;;;-142.21;88.06
5053;BME280;2545;50.892;5.740;2023-05-02T07:17:25;56147.38;;;-142.21;85.83
5053;BME280;2545;50.892;5.740;2023-05-02T07:19:51;56167.00;;;-142.21;83.86
5053;BME280;2545;50.892;5.740;2023-05-02T07:22:17;56178.75;;;-142.21;83.25
5053;BME280;2545;50.892;5.740;2023-05-02T07:24:42;56157.19;;;-142.21;82.77
5053;BME280;2545;50.892;5.740;2023-05-02T07:27:09;56182.69;;;-142.21;82.81
5053;BME280;2545;50.892;5.740;2023-05-02T07:29:34;56157.19;;;-142.21;82.20
5053;BME280;2545;50.892;5.740;2023-05-02T07:32:00;56155.22;;;-142.21;80.73
5053;BME280;2545;50.892;5.740;2023-05-02T07:34:25;56133.66;;;-142.21;80.44
5053;BME280;2545;50.892;5.740;2023-05-02T07:36:50;56172.88;;;-142.21;80.47
5053;BME280;2545;50.892;5.740;2023-05-02T07:39:16;56176.78;;;-142.21;81.01
5053;BME280;2545;50.892;5.740;2023-05-02T07:41:41;56127.78;;;-142.21;78.68
5053;BME280;2545;50.892;5.740;2023-05-02T07:44:07;56139.53;;;-142.21;75.48
5053;BME280;2545;50.892;5.740;2023-05-02T07:46:32;56141.50;;;-142.21;74.22
5053;BME280;2545;50.892;5.740;2023-05-02T07:48:57;56135.63;;;-142.21;72.97
5053;BME280;2545;50.892;5.740;2023-05-02T07:51:22;56116.00;;;-142.21;70.46
5053;BME280;2545;50.892;5.740;2023-05-02T07:53:50;56135.63;;;-142.21;67.65
5053;BME280;2545;50.892;5.740;2023-05-02T07:56:20;56137.59;;;-142.21;65.76
5053;BME280;2545;50.892;5.740;2023-05-02T07:58:57;56167.00;;;-142.21;68.29
5053;BME280;2545;50.892;5.740;2023-05-02T08:01:22;56172.88;;;-142.21;64.29
5053;BME280;2545;50.892;5.740;2023-05-02T08:03:47;56127.78;;;-142.21;61.89
5053;BME280;2545;50.892;5.740;2023-05-02T08:06:13;56141.50;;;-142.21;61.92
5053;BME280;2545;50.892;5.740;2023-05-02T08:08:39;56149.34;;;-142.21;63.07
5053;BME280;2545;50.892;5.740;2023-05-02T08:11:04;56135.63;;;-142.21;63.88
5053;BME280;2545;50.892;5.740;2023-05-02T08:13:30;56131.69;;;-142.21;62.52
5053;BME280;2545;50.892;5.740;2023-05-02T08:15:55;56123.84;;;-142.21;62.67
5053;BME280;2545;50.892;5.740;2023-05-02T08:18:23;56135.63;;;-142.21;65.32
5053;BME280;2545;50.892;5.740;2023-05-02T08:20:49;56123.84;;;-142.21;63.91
5053;BME280;2545;50.892;5.740;2023-05-02T08:23:15;56157.19;;;-142.21;63.15
5053;BME280;2545;50.892;5.740;2023-05-02T08:25:40;56137.59;;;-142.21;59.22
5053;BME280;2545;50.892;5.740;2023-05-02T08:28:06;56125.81;;;-142.21;57.27
5053;BME280;2545;50.892;5.740;2023-05-02T08:30:31;56151.31;;;-142.21;55.72
5053;BME280;2545;50.892;5.740;2023-05-02T08:32:56;56110.13;;;-142.21;56.89
5053;BME280;2545;50.892;5.740;2023-05-02T08:35:22;56116.00;;;-142.21;54.15
5053;BME280;2545;50.892;5.740;2023-05-02T08:37:47;56114.06;;;-142.21;53.09
5053;BME280;2545;50.892;5.740;2023-05-02T08:40:13;56163.06;;;-142.21;53.69
5053;BME280;2545;50.892;5.740;2023-05-02T08:42:41;56129.75;;;-142.21;52.40
5053;BME280;2545;50.892;5.740;2023-05-02T08:45:08;56090.53;;;-142.21;54.19
5053;BME280;2545;50.892;5.740;2023-05-02T08:47:35;56127.78;;;-142.21;55.27
5053;BME280;2545;50.892;5.740;2023-05-02T08:50:04;56137.59;;;-142.21;54.55
5053;BME280;2545;50.892;5.740;2023-05-02T08:52:31;56116.00;;;-142.21;54.34
5053;BME280;2545;50.892;5.740;2023-05-02T08:54:57;56116.00;;;-142.21;52.97
5053;BME280;2545;50.892;5.740;2023-05-02T08:57:25;56076.78;;;-142.21;51.45
5053;BME280;2545;50.892;5.740;2023-05-02T08:59:52;56104.25;;;-142.21;52.54
5053;BME280;2545;50.892;5.740;2023-05-02T09:05:06;56100.31;;;-142.21;54.95
5053;BME280;2545;50.892;5.740;2023-05-02T09:07:47;56088.56;;;-142.21;53.61
5053;BME280;2545;50.892;5.740;2023-05-02T09:10:13;56110.13;;;-142.21;50.91
5053;BME280;2545;50.892;5.740;2023-05-02T09:12:39;56086.59;;;-142.21;52.48
5053;BME280;2545;50.892;5.740;2023-05-02T09:15:12;56129.75;;;-142.21;50.04
5053;BME280;2545;50.892;5.740;2023-05-02T09:17:47;56110.13;;;-142.21;47.81
5053;BME280;2545;50.892;5.740;2023-05-02T09:20:14;56086.59;;;-142.21;47.49
5053;BME280;2545;50.892;5.740;2023-05-02T09:22:50;56096.41;;;-142.21;47.19
5053;BME280;2545;50.892;5.740;2023-05-02T09:25:18;56100.31;;;-142.21;45.33
5053;BME280;2545;50.892;5.740;2023-05-02T09:27:54;56074.84;;;-142.21;47.47
5053;BME280;2545;50.892;5.740;2023-05-02T09:30:24;56084.63;;;-142.21;45.36
5053;BME280;2545;50.892;5.740;2023-05-02T09:32:51;56108.16;;;-142.21;45.58
5053;BME280;2545;50.892;5.740;2023-05-02T09:35:17;56090.53;;;-142.21;46.61
5053;BME280;2545;50.892;5.740;2023-05-02T09:37:55;56096.41;;;-142.21;46.70
5053;BME280;2545;50.892;5.740;2023-05-02T09:40:21;56090.53;;;-142.21;43.88
5053;BME280;2545;50.892;5.740;2023-05-02T09:42:47;56088.56;;;-142.21;43.09
5053;BME280;2545;50.892;5.740;2023-05-02T09:45:20;56092.47;;;-142.21;42.95
5053;BME280;2545;50.892;5.740;2023-05-02T09:47:46;56078.75;;;-142.21;44.78
5053;BME280;2545;50.892;5.740;2023-05-02T09:50:30;56086.59;;;-142.21;45.63
5053;BME280;2545;50.892;5.740;2023-05-02T09:53:08;56084.63;;;-142.21;46.04
5053;BME280;2545;50.892;5.740;2023-05-02T09:55:34;56100.31;;;-142.21;46.29
5053;BME280;2545;50.892;5.740;2023-05-02T09:58:00;56110.13;;;-142.21;47.03
5053;BME280;2545;50.892;5.740;2023-05-02T10:00:44;56098.38;;;-142.21;46.93
5053;BME280;2545;50.892;5.740;2023-05-02T10:03:10;56072.88;;;-142.21;46.10
5053;BME280;2545;50.892;5.740;2023-05-02T10:05:38;56063.06;;;-142.21;46.18
5053;BME280;2545;50.892;5.740;2023-05-02T10:08:05;56116.00;;;-142.21;45.97
5053;BME280;2545;50.892;5.740;2023-05-02T10:10:32;56108.16;;;-142.21;46.81
5053;BME280;2545;50.892;5.740;2023-05-02T10:12:58;56098.38;;;-142.21;46.15
5053;BME280;2545;50.892;5.740;2023-05-02T10:15:27;56090.53;;;-142.21;46.71
5053;BME280;2545;50.892;5.740;2023-05-02T10:17:57;56078.75;;;-142.21;44.99
5053;BME280;2545;50.892;5.740;2023-05-02T10:20:29;56080.72;;;-142.21;43.09
5053;BME280;2545;50.892;5.740;2023-05-02T10:22:58;56072.88;;;-142.21;39.87
5053;BME280;2545;50.892;5.740;2023-05-02T10:25:24;56076.78;;;-142.21;39.37
5053;BME280;2545;50.892;5.740;2023-05-02T10:27:50;56059.16;;;-142.21;39.59
5053;BME280;2545;50.892;5.740;2023-05-02T10:30:16;56043.47;;;-142.21;38.79
5053;BME280;2545;50.892;5.740;2023-05-02T10:32:44;56021.88;;;-142.21;41.14
5053;BME280;2545;50.892;5.740;2023-05-02T10:35:12;56080.72;;;-142.21;40.79
5053;BME280;2545;50.892;5.740;2023-05-02T10:37:39;56063.06;;;-142.21;39.96
5053;BME280;2545;50.892;5.740;2023-05-02T10:40:09;56063.06;;;-142.21;39.49
5053;BME280;2545;50.892;5.740;2023-05-02T10:42:37;56057.19;;;-142.21;40.22
5053;BME280;2545;50.892;5.740;2023-05-02T10:45:04;56041.50;;;-142.21;37.28
5053;BME280;2545;50.892;5.740;2023-05-02T10:47:35;56035.63;;;-142.21;36.81
5053;BME280;2545;50.892;5.740;2023-05-02T10:50:02;56029.72;;;-142.21;36.26
5053;BME280;2545;50.892;5.740;2023-05-02T10:52:31;56043.47;;;-142.21;35.80
5053;BME280;2545;50.892;5.740;2023-05-02T10:55:20;56068.94;;;-142.21;37.22
5053;BME280;2545;50.892;5.740;2023-05-02T11:00:25;56043.47;;;-142.21;36.15
5053;BME280;2545;50.892;5.740;2023-05-02T11:02:50;56053.25;;;-142.21;36.16
5053;BME280;2545;50.892;5.740;2023-05-02T11:05:16;56017.97;;;-142.21;35.54
5053;BME280;2545;50.892;5.740;2023-05-02T11:07:41;56006.22;;;-142.21;33.64
5053;BME280;2545;50.892;5.740;2023-05-02T11:12:52;56010.13;;;-142.21;33.88
5053;BME280;2545;50.892;5.740;2023-05-02T11:18:11;56016.00;;;-142.21;33.68
5053;BME280;2545;50.892;5.740;2023-05-02T11:20:41;56053.25;;;-142.21;33.68
5053;BME280;2545;50.892;5.740;2023-05-02T11:25:40;56010.13;;;-142.21;31.89
5053;BME280;2545;50.892;5.740;2023-05-02T11:30:58;56002.28;;;-142.21;33.29
5053;BME280;2545;50.892;5.740;2023-05-02T11:33:23;56033.66;;;-142.21;34.62
5053;BME280;2545;50.892;5.740;2023-05-02T11:35:48;56065.03;;;-142.21;35.90
5053;BME280;2545;50.892;5.740;2023-05-02T11:38:15;56025.81;;;-142.21;36.86
5053;BME280;2545;50.892;5.740;2023-05-02T11:40:52;56047.38;;;-142.21;40.42
5053;BME280;2545;50.892;5.740;2023-05-02T11:43:19;56059.16;;;-142.21;38.79
5053;BME280;2545;50.892;5.740;2023-05-02T11:45:46;56049.34;;;-142.21;38.95
5053;BME280;2545;50.892;5.740;2023-05-02T11:48:13;56053.25;;;-142.21;38.38
5053;BME280;2545;50.892;5.740;2023-05-02T11:50:50;56061.09;;;-142.21;36.79
5053;BME280;2545;50.892;5.740;2023-05-02T11:53:21;55994.44;;;-142.21;33.61
5053;BME280;2545;50.892;5.740;2023-05-02T11:55:57;55957.19;;;-142.21;31.90
5053;BME280;2545;50.892;5.740;2023-05-02T11:58:26;56031.69;;;-142.21;32.04
5053;BME280;2545;50.892;5.740;2023-05-02T12:00:56;56014.06;;;-142.21;33.06
5053;BME280;2545;50.892;5.740;2023-05-02T12:03:30;56002.28;;;-142.21;32.06
5053;BME280;2545;50.892;5.740;2023-05-02T12:05:57;55994.44;;;-142.21;32.11
5053;BME280;2545;50.892;5.740;2023-05-02T12:08:32;56010.13;;;-142.21;32.15
5053;BME280;2545;50.892;5.740;2023-05-02T12:10:57;56000.31;;;-142.21;33.76
5053;BME280;2545;50.892;5.740;2023-05-02T12:13:24;56010.13;;;-142.21;33.27
5053;BME280;2545;50.892;5.740;2023-05-02T12:15:51;56002.28;;;-142.21;34.50
5053;BME280;2545;50.892;5.740;2023-05-02T12:18:18;56068.94;;;-142.21;34.65
5053;BME280;2545;50.892;5.740;2023-05-02T12:20:44;56055.22;;;-142.21;35.67
5053;BME280;2545;50.892;5.740;2023-05-02T12:23:11;56049.34;;;-142.21;36.38
5053;BME280;2545;50.892;5.740;2023-05-02T12:25:38;56045.41;;;-142.21;33.48
5053;BME280;2545;50.892;5.740;2023-05-02T12:28:03;56004.25;;;-142.21;32.13
5053;BME280;2545;50.892;5.740;2023-05-02T12:30:30;55998.38;;;-142.21;31.22
5053;BME280;2545;50.892;5.740;2023-05-02T12:32:56;55945.41;;;-142.21;29.96
5053;BME280;2545;50.892;5.740;2023-05-02T12:35:29;55990.53;;;-142.21;29.93
5053;BME280;2545;50.892;5.740;2023-05-02T12:40:38;55929.75;;;-142.21;28.86
5053;BME280;2545;50.892;5.740;2023-05-02T12:43:10;55941.50;;;-142.21;29.73
5053;BME280;2545;50.892;5.740;2023-05-02T12:45:36;55959.16;;;-142.21;28.65
5053;BME280;2545;50.892;5.740;2023-05-02T12:48:16;55919.94;;;-142.21;27.54
5053;BME280;2545;50.892;5.740;2023-05-02T12:50:42;55882.69;;;-142.21;28.11
5053;BME280;2545;50.892;5.740;2023-05-02T12:53:07;55867.00;;;-142.21;27.64
5053;BME280;2545;50.892;5.740;2023-05-02T12:55:33;55888.56;;;-142.21;26.69
5053;BME280;2545;50.892;5.740;2023-05-02T12:58:00;55892.47;;;-142.21;26.29
5053;BME280;2545;50.892;5.740;2023-05-02T13:00:25;55955.22;;;-142.21;27.72
5053;BME280;2545;50.892;5.740;2023-05-02T13:02:50;55968.94;;;-142.21;27.83
5053;BME280;2545;50.892;5.740;2023-05-02T13:05:17;56023.84;;;-142.21;29.89
5053;BME280;2545;50.892;5.740;2023-05-02T13:07:43;55996.41;;;-142.21;30.32
5053;BME280;2545;50.892;5.740;2023-05-02T13:10:09;55990.53;;;-142.21;29.77
5053;BME280;2545;50.892;5.740;2023-05-02T13:12:35;55984.63;;;-142.21;30.61
5053;BME280;2545;50.892;5.740;2023-05-02T13:15:06;55972.88;;;-142.21;28.33
5053;BME280;2545;50.892;5.740;2023-05-02T13:17:32;55955.22;;;-142.21;27.38
5053;BME280;2545;50.892;5.740;2023-05-02T13:19:57;55921.91;;;-142.21;26.77
5053;BME280;2545;50.892;5.740;2023-05-02T13:22:23;55912.09;;;-142.21;26.33
5053;BME280;2545;50.892;5.740;2023-05-02T13:24:49;55943.47;;;-142.21;26.83
5053;BME280;2545;50.892;5.740;2023-05-02T13:27:15;55965.03;;;-142.21;26.54
5053;BME280;2545;50.892;5.740;2023-05-02T13:29:45;55986.59;;;-142.21;27.63
5053;BME280;2545;50.892;5.740;2023-05-02T13:32:10;55967.00;;;-142.21;29.01
5053;BME280;2545;50.892;5.740;2023-05-02T13:34:36;55976.78;;;-142.21;28.40
5053;BME280;2545;50.892;5.740;2023-05-02T13:37:02;55978.75;;;-142.21;27.97
5053;BME280;2545;50.892;5.740;2023-05-02T13:39:27;55974.84;;;-142.21;28.22